Time;durP1;ratioP1;P1;durP2;ratioP2;P2;SDS_P1;SDS_P2;PMS_P1;PMS_P2;Temp;Humidity;BMP_temperature;BMP_pressure;BME280_temperature;BME280_humidity;BME280_pressure;Samples;Min_cycle;Max_cycle;Signal;HPM_P1;HPM_P2
2023/01/14 00:01:30;;;;;;;28.02;22.27;;;;;;;3.96;73.29;95197.19;5098082;28;20216;-74
2023/01/14 00:03:58;;;;;;;26.88;21.55;;;;;;;3.95;73.05;95200.19;5080451;28;20196;-74
2023/01/14 00:06:28;;;;;;;26.35;21.98;;;;;;;3.96;73.72;95199.91;5098319;28;20631;-74
2023/01/14 00:08:57;;;;;;;27.60;23.20;;;;;;;3.95;73.25;95197.47;5098525;28;20632;-74
2023/01/14 00:14:15;;;;;;;27.27;23.58;;;;;;;3.93;73.39;95202.44;5097071;28;20215;-74
2023/01/14 00:16:45;;;;;;;28.23;23.48;;;;;;;3.96;73.32;95199.91;5079235;28;20215;-74
2023/01/14 00:19:13;;;;;;;31.30;24.95;;;;;;;3.96;73.08;95197.19;5079807;28;20189;-75
2023/01/14 00:21:41;;;;;;;31.13;26.10;;;;;;;3.97;73.24;95190.59;5079486;28;20224;-75
2023/01/14 00:24:13;;;;;;;33.67;27.52;;;;;;;3.99;73.36;95195.72;5079402;28;20196;-75
2023/01/14 00:26:42;;;;;;;37.38;30.00;;;;;;;4.03;73.48;95180.34;5079095;28;20224;-75
2023/01/14 00:29:16;;;;;;;33.95;29.00;;;;;;;4.06;73.47;95183.28;5079394;28;20200;-75
2023/01/14 00:31:45;;;;;;;32.33;27.80;;;;;;;4.07;73.60;95186.84;5079085;28;20216;-75
2023/01/14 00:34:14;;;;;;;34.25;28.13;;;;;;;4.07;73.25;95184.09;5079115;28;20287;-75
2023/01/14 00:36:44;;;;;;;32.90;28.65;;;;;;;4.04;73.41;95198.38;5079096;28;20204;-75
2023/01/14 00:39:10;;;;;;;36.08;29.02;;;;;;;3.97;73.64;95195.25;5078743;28;20204;-75
2023/01/14 00:41:38;;;;;;;36.90;29.27;;;;;;;3.89;73.88;95191.34;5079186;28;20220;-75
2023/01/14 00:44:07;;;;;;;44.15;31.48;;;;;;;3.88;74.21;95192.44;5078681;28;20211;-75
2023/01/14 00:46:38;;;;;;;49.70;33.33;;;;;;;3.86;74.50;95197.41;5078702;28;20211;-74
2023/01/14 00:49:08;;;;;;;53.13;33.15;;;;;;;3.86;74.30;95200.94;5078986;28;20201;-74
2023/01/14 00:51:36;;;;;;;47.38;32.05;;;;;;;3.88;73.92;95195.16;5078405;28;20205;-75
2023/01/14 00:54:04;;;;;;;44.38;30.85;;;;;;;3.90;73.96;95198.41;5078930;28;20204;-74
2023/01/14 00:56:32;;;;;;;40.17;28.73;;;;;;;3.90;74.37;95201.13;5069920;28;20254;-74
2023/01/14 00:59:00;;;;;;;34.33;27.50;;;;;;;3.95;74.22;95192.00;5078664;28;20208;-74
2023/01/14 01:01:27;;;;;;;37.13;29.52;;;;;;;3.99;73.87;95193.81;5079016;28;20538;-74
2023/01/14 01:03:58;;;;;;;37.10;28.27;;;;;;;3.98;73.63;95194.13;5078564;28;20196;-74
2023/01/14 01:06:27;;;;;;;31.70;24.65;;;;;;;4.02;73.71;95195.13;5078197;28;20208;-74
2023/01/14 01:09:00;;;;;;;24.67;21.25;;;;;;;3.99;73.40;95198.47;5078807;28;20205;-74
2023/01/14 01:11:28;;;;;;;24.55;21.70;;;;;;;4.01;73.51;95193.53;5078867;28;20291;-74
2023/01/14 01:13:56;;;;;;;23.52;20.40;;;;;;;4.03;73.42;95185.81;5078303;28;20216;-74
2023/01/14 01:16:24;;;;;;;22.92;20.05;;;;;;;4.01;73.37;95190.78;5078158;28;20201;-75
2023/01/14 01:18:52;;;;;;;19.83;17.73;;;;;;;4.00;72.92;95195.44;5078326;28;20273;-74
2023/01/14 01:21:21;;;;;;;20.60;18.42;;;;;;;4.02;73.02;95189.66;5078111;28;20651;-74
2023/01/14 01:23:49;;;;;;;18.90;16.90;;;;;;;4.01;73.21;95186.13;5078061;28;20246;-74
2023/01/14 01:26:19;;;;;;;16.85;15.15;;;;;;;3.98;73.18;95184.00;5078720;28;20192;-74
2023/01/14 01:28:48;;;;;;;15.00;13.60;;;;;;;3.91;73.14;95186.34;5077940;28;20204;-74
2023/01/14 01:31:17;;;;;;;16.20;14.68;;;;;;;3.80;73.23;95172.13;5078842;28;20212;-74
2023/01/14 01:33:45;;;;;;;16.70;15.00;;;;;;;3.69;72.78;95172.69;5078010;28;20201;-74
2023/01/14 01:36:15;;;;;;;16.30;14.68;;;;;;;3.62;73.63;95173.91;5078119;28;20200;-74
2023/01/14 01:38:45;;;;;;;16.92;15.23;;;;;;;3.59;73.62;95162.78;5078168;28;20545;-74
2023/01/14 01:41:15;;;;;;;16.45;14.85;;;;;;;3.53;73.90;95164.03;5077874;28;20200;-74
2023/01/14 01:44:08;;;;;;;16.92;15.23;;;;;;;3.50;73.53;95168.16;5077878;28;20247;-74
2023/01/14 01:46:37;;;;;;;16.75;15.15;;;;;;;3.47;74.21;95163.31;5077969;28;20249;-74
2023/01/14 01:49:09;;;;;;;16.58;15.02;;;;;;;3.47;73.92;95167.97;5078324;28;20608;-74
2023/01/14 01:51:42;;;;;;;18.75;16.95;;;;;;;3.47;73.99;95165.25;5078161;28;20204;-74
2023/01/14 01:54:12;;;;;;;18.90;17.13;;;;;;;3.44;73.99;95161.19;5077947;28;20200;-74
2023/01/14 01:56:42;;;;;;;18.27;16.48;;;;;;;3.44;74.18;95166.66;5077097;28;20249;-74
2023/01/14 01:59:14;;;;;;;16.58;15.10;;;;;;;3.36;73.43;95165.47;5078490;28;20254;-75
2023/01/14 02:01:42;;;;;;;15.98;14.48;;;;;;;3.33;74.26;95155.16;5078036;28;20208;-74
2023/01/14 02:04:12;;;;;;;16.98;15.27;;;;;;;3.33;74.39;95162.53;5077515;28;20541;-74
2023/01/14 02:06:41;;;;;;;17.90;16.20;;;;;;;3.35;74.51;95158.41;5077894;28;20193;-75
2023/01/14 02:09:10;;;;;;;18.15;16.25;;;;;;;3.33;74.72;95162.53;5077353;28;20200;-74
2023/01/14 02:12:28;;;;;;;17.85;16.05;;;;;;;3.34;74.32;95158.69;5077948;28;20207;-74
2023/01/14 02:15:05;;;;;;;17.27;15.60;;;;;;;3.32;74.38;95160.94;5077179;28;20228;-75
2023/01/14 02:17:39;;;;;;;17.52;15.82;;;;;;;3.32;74.20;95166.38;5078723;28;20196;-75
2023/01/14 02:20:18;;;;;;;17.30;15.60;;;;;;;3.32;74.53;95159.00;5081848;28;20196;-74
2023/01/14 02:23:30;;;;;;;17.10;15.48;;;;;;;3.31;74.28;95164.78;5081821;28;20220;-74
2023/01/14 02:26:42;;;;;;;18.83;17.00;;;;;;;3.34;74.58;95162.25;5061810;28;20200;-74
2023/01/14 02:29:48;;;;;;;18.55;16.73;;;;;;;3.33;74.09;95155.16;5099095;28;20189;-74
2023/01/14 02:32:19;;;;;;;18.75;16.95;;;;;;;3.28;73.97;95157.19;5001071;28;20210;-74
2023/01/14 02:34:52;;;;;;;17.85;16.20;;;;;;;3.25;74.42;95157.81;5069288;28;20215;-74
2023/01/14 02:37:27;;;;;;;17.58;15.93;;;;;;;3.26;74.27;95159.41;5081273;28;20613;-75
2023/01/14 02:40:00;;;;;;;17.98;16.15;;;;;;;3.19;74.17;95156.28;5081052;28;20200;-74
2023/01/14 02:45:27;;;;;;;19.20;17.20;;;;;;;3.09;74.40;95162.78;5081111;28;20204;-74
2023/01/14 02:47:55;;;;;;;18.95;16.95;;;;;;;3.03;74.40;95151.16;5081389;28;20532;-74
2023/01/14 02:50:26;;;;;;;19.85;17.88;;;;;;;3.02;74.50;95159.63;5080717;28;20222;-74
2023/01/14 02:52:53;;;;;;;18.83;17.00;;;;;;;3.02;74.53;95151.47;5081005;28;20666;-74
2023/01/14 02:55:31;;;;;;;19.50;17.60;;;;;;;3.02;74.77;95160.44;5081492;28;20208;-74
2023/01/14 02:58:18;;;;;;;19.00;17.10;;;;;;;3.03;74.58;95159.31;5080814;28;20250;-74
2023/01/14 03:00:53;;;;;;;19.25;17.38;;;;;;;3.05;74.51;95156.28;5080882;28;20208;-74
2023/01/14 03:03:30;;;;;;;20.75;18.65;;;;;;;3.01;74.68;95152.56;5080488;28;20227;-74
2023/01/14 03:06:17;;;;;;;20.52;18.42;;;;;;;3.02;75.42;95151.47;5080872;28;20210;-74
2023/01/14 03:08:52;;;;;;;19.67;17.73;;;;;;;3.11;75.30;95155.88;5080914;28;20197;-74
2023/01/14 03:11:20;;;;;;;19.55;17.65;;;;;;;3.16;75.36;95162.34;5080750;28;20192;-74
2023/01/14 03:13:51;;;;;;;19.52;17.52;;;;;;;3.13;74.63;95167.31;5080313;28;20201;-74
2023/01/14 03:16:24;;;;;;;20.13;18.08;;;;;;;3.14;74.80;95155.28;5080307;28;20212;-74
2023/01/14 03:18:58;;;;;;;20.20;18.20;;;;;;;3.19;74.70;95148.09;5080790;28;20211;-74
2023/01/14 03:21:28;;;;;;;18.95;17.17;;;;;;;3.25;75.31;95152.34;5080397;28;20258;-74
2023/01/14 03:23:58;;;;;;;18.60;16.90;;;;;;;3.30;74.95;95158.50;5080332;28;20644;-74
2023/01/14 03:26:31;;;;;;;19.45;17.60;;;;;;;3.25;74.96;95155.88;5080146;28;20204;-74
2023/01/14 03:29:01;;;;;;;19.90;18.00;;;;;;;3.25;74.87;95150.44;5079454;28;20205;-74
2023/01/14 03:31:33;;;;;;;19.95;17.95;;;;;;;3.22;74.54;95148.31;5080525;28;20227;-74
2023/01/14 03:34:03;;;;;;;20.45;18.55;;;;;;;3.25;74.86;95147.69;5080346;28;20208;-74
2023/01/14 03:36:34;;;;;;;20.10;18.00;;;;;;;3.34;74.79;95154.06;5080083;28;20212;-74
2023/01/14 03:39:04;;;;;;;20.05;18.15;;;;;;;3.36;74.56;95142.84;5080102;28;20200;-74
2023/01/14 03:44:23;;;;;;;20.08;18.15;;;;;;;3.30;75.13;95146.78;5079637;28;20208;-73
2023/01/14 03:46:51;;;;;;;20.90;18.80;;;;;;;3.34;74.99;95139.59;5079875;28;20208;-74
2023/01/14 03:49:18;;;;;;;20.52;18.48;;;;;;;3.42;75.66;95147.09;5079725;28;20208;-74
2023/01/14 03:51:50;;;;;;;19.20;17.40;;;;;;;3.48;74.74;95139.59;5079974;28;20193;-73
2023/01/14 03:54:21;;;;;;;19.67;17.85;;;;;;;3.48;74.73;95139.59;5079939;28;20197;-74
2023/01/14 03:56:55;;;;;;;20.48;18.58;;;;;;;3.35;74.30;95144.75;5080306;28;20318;-74
2023/01/14 03:59:28;;;;;;;19.75;17.88;;;;;;;3.30;75.01;95138.59;5079978;28;20659;-75
2023/01/14 04:01:59;;;;;;;19.40;17.60;;;;;;;3.28;74.90;95135.38;5080018;28;20200;-74
2023/01/14 04:04:38;;;;;;;19.33;17.42;;;;;;;3.19;74.83;95140.72;5079901;28;20224;-74
2023/01/14 04:07:12;;;;;;;19.77;17.98;;;;;;;3.12;75.06;95135.72;5097531;28;20650;-74
2023/01/14 04:09:40;;;;;;;23.02;20.80;;;;;;;3.11;75.00;95133.28;5079937;28;20204;-74
2023/01/14 04:12:08;;;;;;;25.05;22.67;;;;;;;3.09;75.31;95132.78;5079404;28;20205;-75
2023/01/14 04:17:23;;;;;;;19.52;17.70;;;;;;;3.10;75.24;95126.22;5079772;28;20197;-74
2023/01/14 04:19:51;;;;;;;22.27;19.98;;;;;;;3.07;74.93;95135.00;5079691;28;20225;-75
2023/01/14 04:22:19;;;;;;;33.50;26.17;;;;;;;2.94;74.45;95133.91;5079183;28;20212;-74
2023/01/14 04:24:47;;;;;;;31.83;25.60;;;;;;;2.93;75.20;95128.75;5078855;28;20528;-74
2023/01/14 04:27:14;;;;;;;37.33;28.33;;;;;;;2.93;75.07;95124.09;5078839;28;20226;-74
2023/01/14 04:29:42;;;;;;;33.42;27.92;;;;;;;2.92;74.98;95127.13;5079762;28;20197;-74
2023/01/14 04:32:10;;;;;;;26.55;23.70;;;;;;;2.88;75.09;95121.50;5078975;28;20212;-74
2023/01/14 04:34:39;;;;;;;23.35;21.05;;;;;;;2.86;75.01;95124.50;5079162;28;20200;-74
2023/01/14 04:37:07;;;;;;;23.25;21.08;;;;;;;2.87;75.36;95126.13;5078729;28;20205;-74
2023/01/14 04:39:36;;;;;;;23.95;21.58;;;;;;;2.90;75.51;95127.41;5078756;28;20675;-74
2023/01/14 04:44:50;;;;;;;24.00;21.42;;;;;;;2.96;75.10;95126.22;5079387;28;20648;-75
2023/01/14 04:47:16;;;;;;;21.17;19.08;;;;;;;2.94;75.39;95130.34;5079168;28;20200;-74
2023/01/14 04:49:46;;;;;;;20.63;18.63;;;;;;;2.97;75.16;95127.03;5080096;28;20200;-74
2023/01/14 04:52:14;;;;;;;22.75;20.50;;;;;;;2.98;75.17;95129.47;5079878;28;20203;-74
2023/01/14 04:54:41;;;;;;;27.73;23.73;;;;;;;2.94;74.89;95133.06;5079994;28;20209;-74
2023/01/14 04:57:09;;;;;;;30.38;27.10;;;;;;;2.88;74.75;95135.91;5079218;28;20275;-74
2023/01/14 04:59:38;;;;;;;30.27;27.17;;;;;;;2.84;74.49;95145.00;5096699;28;20192;-74
2023/01/14 05:02:06;;;;;;;31.88;28.40;;;;;;;2.79;74.65;95137.72;5078918;28;20192;-74
2023/01/14 05:04:34;;;;;;;26.27;23.65;;;;;;;2.74;74.84;95132.38;5078314;28;20219;-73
2023/01/14 05:07:08;;;;;;;22.83;20.63;;;;;;;2.67;74.55;95136.59;5078404;28;20563;-74
2023/01/14 05:09:35;;;;;;;24.30;21.90;;;;;;;2.65;74.89;95137.72;5071510;28;20193;-73
2023/01/14 05:12:03;;;;;;;26.83;24.13;;;;;;;2.64;75.00;95133.38;5078892;28;20204;-73
2023/01/14 05:14:31;;;;;;;26.95;24.33;;;;;;;2.62;75.06;95135.59;5079109;28;20207;-74
2023/01/14 05:16:57;;;;;;;26.00;23.58;;;;;;;2.65;74.92;95134.16;5078905;28;20208;-73
2023/01/14 05:19:28;;;;;;;22.30;20.20;;;;;;;2.62;74.86;95130.16;5078743;28;20208;-73
2023/01/14 05:21:56;;;;;;;22.60;20.40;;;;;;;2.59;74.75;95132.66;5078780;28;20205;-73
2023/01/14 05:24:28;;;;;;;22.40;20.30;;;;;;;2.52;74.70;95143.13;5096137;28;20220;-73
2023/01/14 05:26:56;;;;;;;21.98;19.98;;;;;;;2.51;74.60;95136.09;5078490;28;20234;-74
2023/01/14 05:29:26;;;;;;;25.92;23.42;;;;;;;2.54;74.67;95139.03;5078899;28;20285;-73
2023/01/14 05:31:55;;;;;;;23.00;20.80;;;;;;;2.50;74.67;95140.69;5077763;28;20249;-73
2023/01/14 05:34:23;;;;;;;24.73;22.23;;;;;;;2.44;75.37;95143.84;5078403;28;20298;-74
2023/01/14 05:36:50;;;;;;;23.25;21.05;;;;;;;2.41;75.41;95148.75;5077825;28;20192;-73
2023/01/14 05:39:18;;;;;;;22.35;20.25;;;;;;;2.44;75.18;95143.84;5077773;28;20639;-73
2023/01/14 05:47:15;;;;;;;21.15;19.15;;;;;;;2.51;75.74;95149.69;5077700;28;20204;-74
2023/01/14 05:49:43;;;;;;;23.08;20.88;;;;;;;2.56;75.74;95149.59;5077531;28;20204;-73
2023/01/14 05:52:10;;;;;;;22.85;20.75;;;;;;;2.58;75.67;95148.19;5094829;28;20196;-73
2023/01/14 05:54:38;;;;;;;22.80;20.52;;;;;;;2.63;75.51;95150.00;5095301;28;20189;-73
2023/01/14 05:57:17;;;;;;;25.85;23.33;;;;;;;2.65;75.09;95155.94;5077566;28;20652;-73
2023/01/14 05:59:45;;;;;;;24.17;22.02;;;;;;;2.68;75.03;95160.00;5077964;28;20207;-74
2023/01/14 06:07:42;;;;;;;23.27;20.83;;;;;;;2.73;75.05;95151.75;5077934;28;20192;-74
2023/01/14 06:10:11;;;;;;;22.23;19.88;;;;;;;2.74;74.75;95151.44;5077301;28;20189;-74
2023/01/14 06:12:57;;;;;;;24.55;22.00;;;;;;;2.78;75.22;95152.44;5077515;28;20204;-74
2023/01/14 06:15:32;;;;;;;22.38;20.17;;;;;;;2.85;74.88;95154.78;5078257;28;20212;-74
2023/01/14 06:18:09;;;;;;;21.63;19.52;;;;;;;2.86;74.92;95157.19;5077762;28;20538;-74
2023/01/14 06:20:39;;;;;;;21.08;19.08;;;;;;;2.89;74.55;95151.13;5077289;28;20226;-74
2023/01/14 06:23:07;;;;;;;20.17;18.27;;;;;;;2.91;75.28;95150.84;5077289;28;20200;-75
2023/01/14 06:25:34;;;;;;;18.95;17.25;;;;;;;2.89;75.02;95156.59;5077555;28;20285;-74
2023/01/14 06:28:04;;;;;;;19.17;17.38;;;;;;;2.93;75.16;95153.25;5077557;28;20207;-74
2023/01/14 06:30:32;;;;;;;19.27;17.60;;;;;;;2.95;75.19;95148.34;5077247;28;20204;-74
2023/01/14 06:32:58;;;;;;;19.15;17.27;;;;;;;2.97;75.20;95149.63;5077876;28;20204;-74
2023/01/14 06:35:28;;;;;;;18.15;16.55;;;;;;;3.00;75.11;95149.03;5077282;28;20208;-74
2023/01/14 06:37:56;;;;;;;18.58;16.67;;;;;;;3.09;74.92;95158.13;5077479;28;20293;-74
2023/01/14 06:40:24;;;;;;;20.13;18.23;;;;;;;3.19;74.76;95159.00;5077510;28;20283;-74
2023/01/14 06:42:53;;;;;;;19.02;17.23;;;;;;;3.23;74.44;95158.13;5094902;28;20631;-74
2023/01/14 06:45:26;;;;;;;19.00;17.13;;;;;;;3.27;74.57;95158.31;5077100;28;20232;-74
2023/01/14 06:47:54;;;;;;;18.60;16.80;;;;;;;3.31;74.61;95162.84;5077453;28;20208;-74
2023/01/14 06:50:25;;;;;;;18.90;17.13;;;;;;;3.35;74.56;95158.41;5077497;28;20200;-74
2023/01/14 06:52:52;;;;;;;18.00;16.08;;;;;;;3.40;74.50;95162.13;5077239;28;20205;-74
2023/01/14 06:55:21;;;;;;;18.50;16.52;;;;;;;3.46;74.28;95160.91;5077537;28;20243;-74
2023/01/14 06:57:49;;;;;;;20.20;18.10;;;;;;;3.53;74.78;95164.03;5076851;28;20232;-74
2023/01/14 07:00:18;;;;;;;33.72;27.67;;;;;;;3.53;74.77;95169.50;5077228;28;20207;-74
2023/01/14 07:02:47;;;;;;;46.45;35.42;;;;;;;3.53;74.71;95164.03;5076733;28;20300;-74
2023/01/14 07:05:16;;;;;;;37.17;30.38;;;;;;;3.53;74.74;95164.84;5080897;28;20219;-74
2023/01/14 07:07:47;;;;;;;41.28;36.58;;;;;;;3.59;74.87;95174.53;5081496;28;20204;-76
2023/01/14 07:10:16;;;;;;;41.85;37.70;;;;;;;3.65;74.88;95171.69;5080958;28;20201;-76
2023/01/14 07:12:50;;;;;;;54.17;48.75;;;;;;;3.69;75.27;95173.47;5080179;28;20208;-75
2023/01/14 07:15:19;;;;;;;60.60;54.63;;;;;;;3.73;75.23;95174.47;5080811;28;20193;-75
2023/01/14 07:17:53;;;;;;;63.72;57.20;;;;;;;3.75;75.30;95179.66;5081108;28;20211;-76
2023/01/14 07:20:20;;;;;;;64.97;58.38;;;;;;;3.82;75.27;95186.28;5080567;28;20211;-75
2023/01/14 07:22:47;;;;;;;55.80;50.25;;;;;;;3.90;74.74;95189.41;5080333;28;20201;-76
2023/01/14 07:25:15;;;;;;;58.03;52.22;;;;;;;3.95;74.99;95186.56;5079750;28;20239;-75
2023/01/14 07:27:43;;;;;;;50.83;45.55;;;;;;;3.97;74.75;95176.94;5080541;28;20548;-75
2023/01/14 07:30:12;;;;;;;50.22;45.30;;;;;;;4.01;75.00;95188.88;5080358;28;20207;-76
2023/01/14 07:32:40;;;;;;;59.08;53.17;;;;;;;4.02;74.71;95182.28;5080741;28;20205;-75
2023/01/14 07:35:09;;;;;;;61.65;55.65;;;;;;;4.05;75.01;95183.59;5079952;28;20231;-75
2023/01/14 07:37:37;;;;;;;68.18;61.42;;;;;;;4.10;74.90;95188.91;5080392;28;20200;-76
2023/01/14 07:40:06;;;;;;;61.20;55.30;;;;;;;4.09;74.79;95187.31;5079723;28;20689;-75
2023/01/14 07:42:35;;;;;;;57.95;51.95;;;;;;;4.14;74.82;95191.84;5079670;28;20200;-75
2023/01/14 07:45:03;;;;;;;58.03;52.22;;;;;;;4.18;74.80;95187.41;5079819;28;20216;-75
2023/01/14 07:47:31;;;;;;;62.35;56.25;;;;;;;4.23;75.02;95184.53;5080037;28;20204;-75
2023/01/14 07:49:59;;;;;;;63.08;56.88;;;;;;;4.29;74.60;95191.50;5079709;28;20215;-75
2023/01/14 07:52:28;;;;;;;56.70;51.20;;;;;;;4.31;74.18;95187.31;5079800;28;20201;-75
2023/01/14 07:54:55;;;;;;;52.33;47.08;;;;;;;4.35;74.14;95190.25;5079196;28;20197;-75
2023/01/14 07:57:23;;;;;;;47.08;42.42;;;;;;;4.40;74.26;95192.06;5079277;28;20326;-75
2023/01/14 07:59:51;;;;;;;44.78;40.25;;;;;;;4.44;74.15;95195.78;5079879;28;20196;-75
2023/01/14 08:02:19;;;;;;;43.88;39.63;;;;;;;4.51;74.08;95199.69;5079275;28;20292;-75
2023/01/14 08:04:47;;;;;;;42.00;37.95;;;;;;;4.54;73.89;95192.81;5079395;28;20221;-75
2023/01/14 08:07:15;;;;;;;41.95;37.63;;;;;;;4.62;73.88;95199.44;5079601;28;20204;-75
2023/01/14 08:09:44;;;;;;;38.80;34.80;;;;;;;4.71;73.88;95203.00;5079318;28;20613;-75
2023/01/14 08:12:15;;;;;;;37.25;33.50;;;;;;;4.76;73.40;95198.25;5079510;28;20204;-75
2023/01/14 08:14:42;;;;;;;33.95;30.58;;;;;;;4.80;72.87;95203.88;5079129;28;20196;-75
2023/01/14 08:17:11;;;;;;;32.50;29.33;;;;;;;4.86;72.83;95208.09;5096487;28;20212;-75
2023/01/14 08:19:40;;;;;;;32.10;28.80;;;;;;;4.89;72.70;95210.19;5079495;28;20205;-75
2023/01/14 08:22:08;;;;;;;29.58;26.70;;;;;;;4.96;72.41;95212.47;5079050;28;20208;-75
2023/01/14 08:24:36;;;;;;;28.65;25.85;;;;;;;5.09;72.04;95210.78;5078901;28;20227;-75
2023/01/14 08:27:06;;;;;;;27.17;24.63;;;;;;;5.22;72.27;95209.88;5080549;28;20203;-72
2023/01/14 08:29:34;;;;;;;27.55;24.95;;;;;;;5.33;71.99;95208.47;5080951;28;20752;-73
2023/01/14 08:32:03;;;;;;;24.90;22.50;;;;;;;5.40;71.58;95211.53;5081496;28;20201;-73
2023/01/14 08:34:31;;;;;;;24.52;22.20;;;;;;;5.52;70.97;95210.97;5081075;28;20208;-73
2023/01/14 08:36:57;;;;;;;23.90;21.63;;;;;;;5.61;70.95;95217.25;5081765;28;20208;-73
2023/01/14 08:39:24;;;;;;;23.88;21.48;;;;;;;5.70;70.64;95211.78;5081056;28;20230;-72
2023/01/14 08:41:52;;;;;;;24.10;21.90;;;;;;;5.73;70.08;95222.09;5080479;28;20208;-72
2023/01/14 08:44:22;;;;;;;25.15;22.75;;;;;;;5.79;69.90;95220.84;5079518;28;20228;-72
2023/01/14 08:46:49;;;;;;;24.05;21.50;;;;;;;5.84;69.74;95220.69;5080281;28;20208;-73
2023/01/14 08:49:16;;;;;;;23.88;21.48;;;;;;;5.92;69.52;95219.09;5081148;28;20208;-72
2023/01/14 08:51:44;;;;;;;22.88;20.70;;;;;;;5.99;69.29;95220.28;5080498;28;20203;-73
2023/01/14 08:54:11;;;;;;;22.30;20.10;;;;;;;6.15;69.28;95226.09;5080348;28;20212;-73
2023/01/14 08:56:39;;;;;;;22.88;20.67;;;;;;;6.18;68.16;95224.66;5080690;28;20240;-73
2023/01/14 08:59:09;;;;;;;21.75;19.60;;;;;;;6.34;68.55;95220.28;5078369;28;20200;-73
2023/01/14 09:01:37;;;;;;;22.40;20.30;;;;;;;6.48;67.92;95215.47;5078830;28;20215;-73
2023/01/14 09:04:05;;;;;;;22.83;20.63;;;;;;;6.61;68.58;95210.94;5078716;28;20215;-73
2023/01/14 09:17:04;;;;;;;22.58;20.52;;;;;;;6.79;68.09;95203.50;5078907;28;20204;-74
2023/01/14 09:17:43;;;;;;;21.80;19.80;;;;;;;7.12;65.08;95194.72;5078856;28;20207;-73
2023/01/14 09:20:15;;;;;;;19.48;17.60;;;;;;;7.00;64.56;95187.16;5078180;28;20223;-73
2023/01/14 09:22:41;;;;;;;20.58;18.63;;;;;;;6.91;64.78;95195.41;5078075;28;20200;-74
2023/01/14 09:25:09;;;;;;;22.10;20.00;;;;;;;6.88;65.24;95187.03;5077818;28;20235;-74
2023/01/14 09:27:36;;;;;;;23.27;21.13;;;;;;;6.81;65.00;95187.53;5078249;28;20200;-74
2023/01/14 09:30:04;;;;;;;26.02;23.23;;;;;;;6.75;65.18;95189.66;5077809;28;20616;-74
2023/01/14 09:32:38;;;;;;;24.73;22.42;;;;;;;6.74;65.17;95190.75;5077760;28;20625;-74
2023/01/14 09:35:08;;;;;;;24.10;21.70;;;;;;;6.82;65.62;95180.09;5077495;28;20196;-73
2023/01/14 09:37:36;;;;;;;25.77;23.17;;;;;;;6.84;65.11;95184.13;5078370;28;20543;-74
2023/01/14 09:40:05;;;;;;;25.65;23.20;;;;;;;6.94;65.47;95177.50;5078030;28;20219;-73
2023/01/14 09:42:36;;;;;;;24.70;22.42;;;;;;;7.00;64.77;95176.97;5077912;28;20200;-74
2023/01/14 09:45:11;;;;;;;22.90;20.80;;;;;;;7.07;65.26;95173.72;5078045;28;20220;-75
2023/01/14 09:47:39;;;;;;;22.90;20.75;;;;;;;7.11;65.30;95174.69;5078773;28;20231;-73
2023/01/14 09:50:14;;;;;;;22.55;20.55;;;;;;;7.18;64.57;95172.22;5078153;28;20192;-74
2023/01/14 09:52:50;;;;;;;22.23;20.15;;;;;;;7.20;64.27;95172.72;5077645;28;20215;-74
2023/01/14 09:55:24;;;;;;;21.17;19.23;;;;;;;7.26;63.79;95165.09;5077451;28;20204;-74
2023/01/14 09:58:13;;;;;;;21.40;19.40;;;;;;;7.40;63.77;95179.41;5077814;28;20236;-74
2023/01/14 10:00:48;;;;;;;22.35;20.35;;;;;;;7.56;62.99;95162.41;5077779;28;20541;-74
2023/01/14 10:03:25;;;;;;;23.85;21.75;;;;;;;7.74;62.79;95174.88;5077328;28;20188;-75
2023/01/14 10:05:58;;;;;;;26.27;23.90;;;;;;;8.05;63.01;95169.00;5077562;28;20304;-75
2023/01/14 10:08:27;;;;;;;28.13;25.52;;;;;;;8.42;61.94;95161.00;5077684;28;20203;-74
2023/01/14 10:10:56;;;;;;;27.67;25.08;;;;;;;8.52;60.60;95166.09;5077171;28;20211;-74
2023/01/14 10:13:32;;;;;;;27.27;24.75;;;;;;;8.71;60.63;95162.81;5078056;28;20189;-74
2023/01/14 10:16:03;;;;;;;24.95;22.70;;;;;;;8.99;60.12;95164.97;5077917;28;20215;-74
2023/01/14 10:18:34;;;;;;;23.95;21.77;;;;;;;8.94;59.31;95157.75;5077366;28;20196;-74
2023/01/14 10:21:09;;;;;;;24.45;22.17;;;;;;;8.95;59.78;95159.34;5077140;28;20203;-74
2023/01/14 10:23:40;;;;;;;24.20;22.00;;;;;;;8.88;59.05;95156.34;5077939;28;20199;-74
2023/01/14 10:26:14;;;;;;;24.13;21.92;;;;;;;8.80;59.40;95158.06;5077316;28;20227;-74
2023/01/14 10:28:45;;;;;;;23.55;21.35;;;;;;;8.73;59.58;95151.50;5077277;28;20196;-74
2023/01/14 10:31:17;;;;;;;24.63;22.42;;;;;;;8.67;59.85;95154.44;5077228;28;20208;-74
2023/01/14 10:33:46;;;;;;;25.90;23.58;;;;;;;8.67;60.02;95150.91;5077738;28;20207;-74
2023/01/14 10:36:21;;;;;;;25.48;22.98;;;;;;;8.48;60.54;95148.66;5077473;28;20627;-74
2023/01/14 10:38:48;;;;;;;24.80;22.50;;;;;;;8.36;60.15;95149.38;5078614;28;20204;-74
2023/01/14 10:41:48;;;;;;;25.83;23.42;;;;;;;8.27;60.31;95153.34;5081398;28;20288;-75
2023/01/14 10:44:05;;;;;;;24.98;22.67;;;;;;;8.13;60.78;95148.09;5081581;28;20200;-75
2023/01/14 10:46:33;;;;;;;25.80;23.40;;;;;;;7.92;60.94;95145.38;5082113;28;20228;-74
2023/01/14 10:49:05;;;;;;;24.92;22.73;;;;;;;7.83;61.18;95148.16;5082270;28;20200;-74
2023/01/14 10:51:35;;;;;;;25.10;22.80;;;;;;;7.70;61.23;95141.00;5082194;28;20212;-75
2023/01/14 10:54:13;;;;;;;24.75;22.55;;;;;;;7.58;61.54;95135.41;5082378;28;20205;-75
2023/01/14 10:56:44;;;;;;;23.33;21.13;;;;;;;7.51;62.63;95138.66;5081908;28;20254;-74
2023/01/14 10:59:48;;;;;;;21.83;19.83;;;;;;;7.51;62.38;95124.94;5082608;28;20196;-74
2023/01/14 11:02:26;;;;;;;20.83;18.98;;;;;;;7.52;62.83;95129.31;5081843;28;20204;-74
2023/01/14 11:04:55;;;;;;;20.42;18.58;;;;;;;7.68;62.32;95126.78;5098924;28;20295;-74
2023/01/14 11:07:28;;;;;;;20.73;18.83;;;;;;;7.81;62.50;95113.97;5098987;28;20523;-75
2023/01/14 11:09:55;;;;;;;21.10;19.13;;;;;;;7.87;62.05;95118.91;5082125;28;20208;-75
2023/01/14 11:12:32;;;;;;;20.30;18.50;;;;;;;7.99;62.25;95117.34;5081582;28;20255;-74
2023/01/14 11:14:59;;;;;;;19.15;17.35;;;;;;;8.04;61.58;95122.66;5082021;28;20202;-74
2023/01/14 11:17:29;;;;;;;17.48;15.98;;;;;;;8.07;61.41;95116.50;5099392;28;20204;-74
2023/01/14 11:20:30;;;;;;;17.63;16.13;;;;;;;8.08;60.80;95112.59;5099507;28;20207;-74
2023/01/14 11:23:00;;;;;;;17.27;15.68;;;;;;;8.16;60.74;95109.78;5076937;28;20632;-74
2023/01/14 11:25:27;;;;;;;16.80;15.30;;;;;;;8.19;60.77;95111.84;5098694;28;20208;-74
2023/01/14 11:27:57;;;;;;;14.52;13.32;;;;;;;8.30;60.96;95116.94;5065360;28;20633;-74
2023/01/14 11:30:28;;;;;;;13.30;12.20;;;;;;;8.32;59.95;95120.19;5099289;28;20215;-74
2023/01/14 11:32:59;;;;;;;13.32;12.07;;;;;;;8.26;59.46;95122.31;5081114;28;20677;-74
2023/01/14 11:35:32;;;;;;;13.40;12.10;;;;;;;8.23;60.04;95120.22;5098753;28;20257;-75
2023/01/14 11:38:03;;;;;;;13.35;12.23;;;;;;;8.16;60.63;95123.50;5099840;28;20212;-73
2023/01/14 11:43:15;;;;;;;13.50;12.30;;;;;;;8.17;60.42;95116.09;5097463;28;20200;-74
2023/01/14 11:45:41;;;;;;;13.77;12.38;;;;;;;8.18;60.63;95121.25;5081323;28;20224;-74
2023/01/14 11:48:28;;;;;;;12.60;11.40;;;;;;;8.25;60.67;95123.47;5099060;28;20204;-73
2023/01/14 11:50:59;;;;;;;12.00;10.93;;;;;;;8.13;60.25;95120.63;5097609;28;20232;-74
2023/01/14 11:53:43;;;;;;;10.75;9.85;;;;;;;8.08;60.06;95123.59;5098778;28;20192;-73
2023/01/14 11:56:16;;;;;;;10.02;9.23;;;;;;;7.94;60.30;95126.59;5080692;28;20200;-72
2023/01/14 11:58:47;;;;;;;9.52;8.68;;;;;;;7.94;60.59;95123.88;5081057;28;20616;-73
2023/01/14 12:01:22;;;;;;;8.40;7.80;;;;;;;7.87;60.87;95129.09;5080889;28;20196;-73
2023/01/14 12:03:57;;;;;;;8.93;8.05;;;;;;;7.82;60.68;95124.59;5080971;28;20208;-73
2023/01/14 12:06:30;;;;;;;9.07;8.27;;;;;;;7.81;61.46;95128.50;5098611;28;20227;-72
2023/01/14 12:09:01;;;;;;;7.63;7.03;;;;;;;7.84;61.53;95127.00;5098679;28;20193;-74
2023/01/14 12:11:47;;;;;;;8.45;7.75;;;;;;;7.77;61.52;95119.31;5099280;28;20220;-74
2023/01/14 12:17:06;;;;;;;8.27;7.47;;;;;;;7.69;62.40;95120.97;5081727;28;20211;-74
2023/01/14 12:19:36;;;;;;;8.20;7.53;;;;;;;7.71;62.20;95126.94;5081668;28;20268;-74
2023/01/14 12:22:15;;;;;;;7.50;6.90;;;;;;;7.68;61.81;95124.03;5098104;28;20185;-74
2023/01/14 12:24:52;;;;;;;8.75;8.02;;;;;;;7.58;61.90;95124.44;5081041;28;20196;-74